createdAt,value
2022-12-27T00:01:55.143Z,0.08
2022-12-27T00:04:25.503Z,0.30
2022-12-27T00:06:54.865Z,0.20
2022-12-27T00:09:24.783Z,1.75
2022-12-27T00:11:57.982Z,0.10
2022-12-27T00:14:28.362Z,0.77
2022-12-27T00:16:56.857Z,0.10
2022-12-27T00:19:25.507Z,0.50
2022-12-27T00:21:54.394Z,0.30
2022-12-27T00:24:24.764Z,0.15
2022-12-27T00:26:54.130Z,0.73
2022-12-27T00:29:23.002Z,0.10
2022-12-27T00:31:51.822Z,0.28
2022-12-27T00:34:20.812Z,0.10
2022-12-27T00:36:50.290Z,0.03
2022-12-27T00:39:19.630Z,0.20
2022-12-27T00:41:49.860Z,0.40
2022-12-27T00:44:18.325Z,0.10
2022-12-27T00:46:46.701Z,0.03
2022-12-27T00:49:14.973Z,1.38
2022-12-27T00:51:43.661Z,0.40
2022-12-27T00:54:11.887Z,0.10
2022-12-27T00:56:40.947Z,0.20
2022-12-27T00:59:13.265Z,0.10
2022-12-27T01:01:42.138Z,0.00
2022-12-27T01:04:14.613Z,0.60
2022-12-27T01:06:42.915Z,0.30
2022-12-27T01:09:11.229Z,0.60
2022-12-27T01:11:42.037Z,0.28
2022-12-27T01:14:12.300Z,0.40
2022-12-27T01:16:41.460Z,0.30
2022-12-27T01:19:10.359Z,1.40
2022-12-27T01:21:39.611Z,2.67
2022-12-27T01:24:08.372Z,0.68
2022-12-27T01:26:37.092Z,1.08
2022-12-27T01:29:06.118Z,0.73
2022-12-27T01:31:36.807Z,0.93
2022-12-27T01:34:05.805Z,0.43
2022-12-27T01:36:34.700Z,0.40
2022-12-27T01:39:03.737Z,0.90
2022-12-27T01:41:51.545Z,0.73
2022-12-27T01:44:51.834Z,0.60
2022-12-27T01:47:30.960Z,0.98
2022-12-27T01:50:06.399Z,0.35
2022-12-27T01:52:40.215Z,0.43
2022-12-27T01:55:18.816Z,0.38
2022-12-27T01:57:48.638Z,0.68
2022-12-27T02:00:18.027Z,0.88
2022-12-27T02:02:48.046Z,0.55
2022-12-27T02:05:19.413Z,0.60
2022-12-27T02:08:06.387Z,1.17
2022-12-27T02:10:35.809Z,0.43
2022-12-27T02:13:07.170Z,0.47
2022-12-27T02:15:35.986Z,0.40
2022-12-27T02:18:06.174Z,1.25
2022-12-27T02:20:51.372Z,0.55
2022-12-27T02:23:57.933Z,1.02
2022-12-27T02:26:39.566Z,0.30
2022-12-27T02:29:42.451Z,2.33
2022-12-27T02:32:15.691Z,0.32
2022-12-27T02:34:52.116Z,0.60
2022-12-27T02:37:22.778Z,0.28
2022-12-27T02:39:54.602Z,0.80
2022-12-27T02:42:41.087Z,2.78
2022-12-27T02:45:38.102Z,0.85
2022-12-27T02:48:29.457Z,2.15
2022-12-27T02:51:27.294Z,1.65
2022-12-27T02:54:11.000Z,2.75
2022-12-27T02:57:12.387Z,1.60
2022-12-27T03:00:25.384Z,0.40
2022-12-27T03:03:29.724Z,2.75
2022-12-27T03:06:44.196Z,1.80
2022-12-27T03:10:07.971Z,1.30
2022-12-27T03:13:04.850Z,1.55
2022-12-27T03:15:59.230Z,1.40
2022-12-27T03:18:53.134Z,0.75
2022-12-27T03:21:44.563Z,2.30
2022-12-27T03:24:37.110Z,2.45
2022-12-27T03:27:18.411Z,1.25
2022-12-27T03:30:11.215Z,2.17
2022-12-27T03:33:03.505Z,1.42
2022-12-27T03:35:40.239Z,0.77
2022-12-27T03:38:12.307Z,1.63
2022-12-27T03:41:07.924Z,1.73
2022-12-27T03:43:38.053Z,1.70
2022-12-27T03:46:34.578Z,1.20
2022-12-27T03:49:19.494Z,1.38
2022-12-27T03:51:54.516Z,1.63
2022-12-27T03:54:29.631Z,2.65
2022-12-27T03:57:03.213Z,1.60
2022-12-27T03:59:32.011Z,1.17
2022-12-27T04:02:02.449Z,1.95
2022-12-27T04:04:32.851Z,8.93
2022-12-27T04:07:06.360Z,9.82
2022-12-27T04:09:52.729Z,5.45
2022-12-27T04:12:39.241Z,6.38
2022-12-27T04:15:25.696Z,8.25
2022-12-27T04:18:11.484Z,6.32
2022-12-27T04:20:57.655Z,6.50
2022-12-27T04:23:44.918Z,3.55
2022-12-27T04:26:31.170Z,4.13
2022-12-27T04:29:16.892Z,3.03
2022-12-27T04:32:02.744Z,4.00
2022-12-27T04:34:44.000Z,3.60
2022-12-27T04:37:16.231Z,2.40
2022-12-27T04:40:09.981Z,2.88
2022-12-27T04:42:55.860Z,2.05
2022-12-27T04:45:47.386Z,2.97
2022-12-27T04:48:34.821Z,3.42
2022-12-27T04:51:21.147Z,1.77
2022-12-27T04:54:06.815Z,2.30
2022-12-27T04:56:36.586Z,1.33
2022-12-27T04:59:22.661Z,2.55
2022-12-27T05:02:06.000Z,2.85
2022-12-27T05:04:36.654Z,2.45
2022-12-27T05:07:20.988Z,4.05
2022-12-27T05:10:06.479Z,4.68
2022-12-27T05:12:54.075Z,1.60
2022-12-27T05:15:22.976Z,1.95
2022-12-27T05:17:51.277Z,3.55
2022-12-27T05:20:19.782Z,2.17
2022-12-27T05:23:05.937Z,2.92
2022-12-27T05:25:38.688Z,1.83
2022-12-27T05:28:11.578Z,3.40
2022-12-27T05:30:42.361Z,2.13
2022-12-27T05:33:12.660Z,5.40
2022-12-27T05:35:41.353Z,4.28
2022-12-27T05:38:10.627Z,3.47
2022-12-27T05:40:42.400Z,3.17
2022-12-27T05:45:40.945Z,4.10
2022-12-27T05:48:09.359Z,4.43
2022-12-27T05:50:37.861Z,4.00
2022-12-27T05:53:08.000Z,4.85
2022-12-27T05:55:36.430Z,7.57
2022-12-27T05:58:04.872Z,5.85
2022-12-27T06:00:34.812Z,2.30
2022-12-27T06:03:04.235Z,2.47
2022-12-27T06:05:32.869Z,2.72
2022-12-27T06:08:01.236Z,1.30
2022-12-27T06:10:30.053Z,4.07
2022-12-27T06:13:01.855Z,2.97
2022-12-27T06:18:03.674Z,6.97
2022-12-27T06:20:32.265Z,4.30
2022-12-27T06:23:01.303Z,4.35
2022-12-27T06:25:29.953Z,5.13
2022-12-27T06:27:58.370Z,2.67
2022-12-27T06:30:28.429Z,2.42
2022-12-27T06:33:02.010Z,4.30
2022-12-27T06:35:30.459Z,2.72
2022-12-27T06:37:59.792Z,3.25
2022-12-27T06:40:28.335Z,2.38
2022-12-27T06:42:57.438Z,2.78
2022-12-27T06:45:25.713Z,4.22
2022-12-27T06:47:54.089Z,1.55
2022-12-27T06:50:24.044Z,1.50
2022-12-27T06:52:52.436Z,2.10
2022-12-27T06:55:21.272Z,2.20
2022-12-27T06:57:50.354Z,2.17
2022-12-27T07:00:20.819Z,5.38
2022-12-27T07:02:49.694Z,1.45
2022-12-27T07:05:18.215Z,2.58
2022-12-27T07:07:47.791Z,1.92
2022-12-27T07:10:16.039Z,1.30
2022-12-27T07:12:44.659Z,2.90
2022-12-27T07:15:14.074Z,1.05
2022-12-27T07:17:42.479Z,2.10
2022-12-27T07:20:11.863Z,2.53
2022-12-27T07:22:40.103Z,3.60
2022-12-27T07:25:11.048Z,2.67
2022-12-27T07:27:40.267Z,2.22
2022-12-27T07:30:09.995Z,3.35
2022-12-27T07:32:38.397Z,3.33
2022-12-27T07:35:07.475Z,7.68
2022-12-27T07:37:36.169Z,2.83
2022-12-27T07:40:04.719Z,4.10
2022-12-27T07:42:34.292Z,5.40
2022-12-27T07:45:03.020Z,3.60
2022-12-27T07:47:31.505Z,2.63
2022-12-27T07:49:59.838Z,2.78
2022-12-27T07:52:28.483Z,3.25
2022-12-27T07:54:56.781Z,3.25
2022-12-27T07:57:25.078Z,2.88
2022-12-27T07:59:54.711Z,2.30
2022-12-27T08:02:23.108Z,3.13
2022-12-27T08:04:51.337Z,3.40
2022-12-27T08:07:21.195Z,3.10
2022-12-27T08:09:50.234Z,4.13
2022-12-27T08:12:18.583Z,3.00
2022-12-27T08:14:46.804Z,1.85
2022-12-27T08:17:22.148Z,2.53
2022-12-27T08:19:52.982Z,2.63
2022-12-27T08:22:21.617Z,3.03
2022-12-27T08:24:50.234Z,2.97
2022-12-27T08:27:23.154Z,3.05
2022-12-27T08:29:51.430Z,3.85
2022-12-27T08:32:21.081Z,4.00
2022-12-27T08:34:49.317Z,3.55
2022-12-27T08:37:17.612Z,2.45
2022-12-27T08:39:45.877Z,3.53
2022-12-27T08:42:14.836Z,2.08
2022-12-27T08:44:44.123Z,3.65
2022-12-27T08:47:12.410Z,3.83
2022-12-27T08:49:42.054Z,2.50
2022-12-27T08:52:10.437Z,3.55
2022-12-27T08:54:38.703Z,2.40
2022-12-27T08:57:07.207Z,3.35
2022-12-27T08:59:35.583Z,2.40
2022-12-27T09:02:03.937Z,4.50
2022-12-27T09:04:32.280Z,3.72
2022-12-27T09:07:01.962Z,3.92
2022-12-27T09:09:30.190Z,5.28
2022-12-27T09:11:58.465Z,4.85
2022-12-27T09:14:26.770Z,2.30
2022-12-27T09:16:55.781Z,2.75
2022-12-27T09:19:24.095Z,1.88
2022-12-27T09:21:52.404Z,3.83
2022-12-27T09:24:22.149Z,1.90
2022-12-27T09:26:50.611Z,2.92
2022-12-27T09:29:19.302Z,2.83
2022-12-27T09:31:47.562Z,3.08
2022-12-27T09:34:15.941Z,3.30
2022-12-27T09:36:44.357Z,5.05
2022-12-27T09:39:13.965Z,4.38
2022-12-27T09:42:45.139Z,3.72
2022-12-27T09:44:49.079Z,4.78
2022-12-27T09:47:21.778Z,4.22
2022-12-27T09:49:53.434Z,8.38
2022-12-27T09:52:28.117Z,5.82
2022-12-27T09:55:05.418Z,9.27
2022-12-27T09:57:38.759Z,8.02
2022-12-27T10:00:16.158Z,7.13
2022-12-27T10:02:45.894Z,11.48
2022-12-27T10:05:21.984Z,6.63
2022-12-27T10:08:09.371Z,5.00
2022-12-27T10:10:43.460Z,2.47
2022-12-27T10:13:32.499Z,4.35
2022-12-27T10:16:10.855Z,9.48
2022-12-27T10:18:47.748Z,5.95
2022-12-27T10:21:22.201Z,8.30
2022-12-27T10:23:56.780Z,3.85
2022-12-27T10:26:26.649Z,2.20
2022-12-27T10:29:02.160Z,3.83
2022-12-27T10:31:33.015Z,2.60
2022-12-27T10:34:05.055Z,3.35
2022-12-27T10:36:38.303Z,2.35
2022-12-27T10:39:14.538Z,5.20
2022-12-27T10:41:51.649Z,2.20
2022-12-27T10:44:23.786Z,1.83
2022-12-27T10:46:55.381Z,2.03
2022-12-27T10:49:26.480Z,1.20
2022-12-27T10:51:58.075Z,2.50
2022-12-27T10:54:28.203Z,1.33
2022-12-27T10:56:57.980Z,2.55
2022-12-27T10:59:29.699Z,2.33
2022-12-27T11:05:00.327Z,2.03
2022-12-27T11:07:33.206Z,1.33
2022-12-27T11:10:15.604Z,1.90
2022-12-27T11:12:57.321Z,2.17
2022-12-27T11:17:57.324Z,3.80
2022-12-27T11:20:28.992Z,2.97
2022-12-27T11:25:28.308Z,2.67
2022-12-27T11:27:59.324Z,4.32
2022-12-27T11:30:32.283Z,2.70
2022-12-27T11:33:05.290Z,2.13
2022-12-27T11:35:37.583Z,1.45
2022-12-27T11:38:06.447Z,1.65
2022-12-27T11:40:36.007Z,3.80
2022-12-27T11:43:10.056Z,3.92
2022-12-27T11:45:43.805Z,2.63
2022-12-27T11:48:22.241Z,3.92
2022-12-27T11:51:14.480Z,3.53
2022-12-27T11:54:06.194Z,1.80
2022-12-27T11:56:38.311Z,5.43
2022-12-27T11:59:40.424Z,2.50
2022-12-27T12:02:31.891Z,2.05
2022-12-27T12:05:32.871Z,3.67
2022-12-27T12:08:34.323Z,2.83
2022-12-27T12:11:16.354Z,2.30
2022-12-27T12:14:25.073Z,2.40
2022-12-27T12:17:22.982Z,2.38
2022-12-27T12:20:33.387Z,2.03
2022-12-27T12:23:11.508Z,1.88
2022-12-27T12:26:01.100Z,1.92
2022-12-27T12:29:06.667Z,1.67
2022-12-27T12:31:55.446Z,2.05
2022-12-27T12:34:43.822Z,1.80
2022-12-27T12:37:25.798Z,2.53
2022-12-27T12:40:11.484Z,1.73
2022-12-27T12:42:51.162Z,2.13
2022-12-27T12:45:50.329Z,1.75
2022-12-27T12:48:57.581Z,1.92
2022-12-27T12:51:45.195Z,3.38
2022-12-27T12:54:48.315Z,2.80
2022-12-27T12:57:37.511Z,2.95
2022-12-27T13:00:21.305Z,3.25
2022-12-27T13:03:22.294Z,1.85
2022-12-27T13:05:57.268Z,4.88
2022-12-27T13:08:32.380Z,3.63
2022-12-27T13:11:22.459Z,2.53
2022-12-27T13:14:03.623Z,1.98
2022-12-27T13:16:48.251Z,1.70
2022-12-27T13:19:37.209Z,1.80
2022-12-27T13:22:16.136Z,3.10
2022-12-27T13:24:59.686Z,1.83
2022-12-27T13:27:37.094Z,2.85
2022-12-27T13:30:17.378Z,2.28
2022-12-27T13:33:09.074Z,1.95
2022-12-27T13:35:49.357Z,2.15
2022-12-27T13:38:33.283Z,2.15
2022-12-27T13:41:24.976Z,2.90
2022-12-27T13:44:20.618Z,3.25
2022-12-27T13:47:30.603Z,1.48
2022-12-27T13:50:24.834Z,1.90
2022-12-27T13:53:13.925Z,3.92
2022-12-27T13:55:56.440Z,3.83
2022-12-27T13:59:00.150Z,2.30
2022-12-27T14:01:47.459Z,4.78
2022-12-27T14:04:48.350Z,3.08
2022-12-27T14:07:49.923Z,3.00
2022-12-27T14:10:37.955Z,3.08
2022-12-27T14:13:09.295Z,4.50
2022-12-27T14:16:17.738Z,3.33
2022-12-27T14:19:13.955Z,2.35
2022-12-27T14:22:17.786Z,2.63
2022-12-27T14:25:25.377Z,2.38
2022-12-27T14:28:30.784Z,4.25
2022-12-27T14:31:41.455Z,3.70
2022-12-27T14:34:47.717Z,6.75
2022-12-27T14:37:40.680Z,3.15
2022-12-27T14:40:40.498Z,3.78
2022-12-27T14:43:40.567Z,3.28
2022-12-27T14:46:48.936Z,3.15
2022-12-27T14:49:53.874Z,2.45
2022-12-27T14:52:58.577Z,4.20
2022-12-27T14:55:39.666Z,4.43
2022-12-27T14:58:26.365Z,4.30
2022-12-27T15:01:06.146Z,3.90
2022-12-27T15:04:04.540Z,3.50
2022-12-27T15:07:01.321Z,3.25
2022-12-27T15:09:42.668Z,2.65
2022-12-27T15:12:20.121Z,3.25
2022-12-27T15:15:00.999Z,7.25
2022-12-27T15:17:50.178Z,5.07
2022-12-27T15:20:42.473Z,4.30
2022-12-27T15:23:21.434Z,3.83
2022-12-27T15:25:58.251Z,4.22
2022-12-27T15:28:35.890Z,5.07
2022-12-27T15:31:11.477Z,7.50
2022-12-27T15:33:47.763Z,9.15
2022-12-27T15:36:17.797Z,8.50
2022-12-27T15:38:53.895Z,7.68
2022-12-27T15:41:52.610Z,6.50
2022-12-27T15:44:34.552Z,6.75
2022-12-27T15:50:13.121Z,5.80
2022-12-27T15:52:55.499Z,6.32
2022-12-27T15:55:47.785Z,5.03
2022-12-27T15:58:19.967Z,5.75
2022-12-27T16:01:26.137Z,4.25
2022-12-27T16:03:58.478Z,5.57
2022-12-27T16:06:50.362Z,5.25
2022-12-27T16:09:24.022Z,8.63
2022-12-27T16:12:03.916Z,4.00
2022-12-27T16:14:33.953Z,5.72
2022-12-27T16:17:28.507Z,6.40
2022-12-27T16:20:15.594Z,5.05
2022-12-27T16:22:51.633Z,3.92
2022-12-27T16:25:35.016Z,5.45
2022-12-27T16:28:09.761Z,6.05
2022-12-27T16:30:43.201Z,6.63
2022-12-27T16:33:33.784Z,5.18
2022-12-27T16:36:08.681Z,6.32
2022-12-27T16:38:39.551Z,6.30
2022-12-27T16:41:16.843Z,4.70
2022-12-27T16:44:04.304Z,5.40
2022-12-27T16:46:56.432Z,5.40
2022-12-27T16:49:55.065Z,4.97
2022-12-27T16:52:52.675Z,7.80
2022-12-27T16:56:03.453Z,5.47
2022-12-27T16:58:37.246Z,5.85
2022-12-27T17:01:28.418Z,4.32
2022-12-27T17:03:59.632Z,4.95
2022-12-27T17:06:55.243Z,4.00
2022-12-27T17:09:43.733Z,3.00
2022-12-27T17:12:24.521Z,4.72
2022-12-27T17:15:00.095Z,3.78
2022-12-27T17:17:30.659Z,3.20
2022-12-27T17:20:03.424Z,4.43
2022-12-27T17:22:35.289Z,3.50
2022-12-27T17:25:05.888Z,5.30
2022-12-27T17:27:55.154Z,7.80
2022-12-27T17:30:25.722Z,5.32
2022-12-27T17:33:19.693Z,3.65
2022-12-27T17:36:18.070Z,3.42
2022-12-27T17:38:58.955Z,4.63
2022-12-27T17:41:56.757Z,4.40
2022-12-27T17:44:40.213Z,2.92
2022-12-27T17:47:30.151Z,6.88
2022-12-27T17:50:02.567Z,19.48
2022-12-27T17:52:48.488Z,13.95
2022-12-27T17:55:37.505Z,8.93
2022-12-27T17:58:10.497Z,6.18
2022-12-27T18:00:45.932Z,4.57
2022-12-27T18:03:15.109Z,5.03
2022-12-27T18:05:49.207Z,4.95
2022-12-27T18:08:27.941Z,4.88
2022-12-27T18:10:57.267Z,4.88
2022-12-27T18:13:28.383Z,4.18
2022-12-27T18:15:57.362Z,5.95
2022-12-27T18:18:29.532Z,3.60
2022-12-27T18:21:02.445Z,10.07
2022-12-27T18:23:39.621Z,9.40
2022-12-27T18:26:13.930Z,10.27
2022-12-27T18:28:44.042Z,9.15
2022-12-27T18:31:17.838Z,8.18
2022-12-27T18:33:50.626Z,9.02
2022-12-27T18:36:28.014Z,6.28
2022-12-27T18:39:01.571Z,8.15
2022-12-27T18:41:36.829Z,4.95
2022-12-27T18:44:10.903Z,16.70
2022-12-27T18:46:40.366Z,16.40
2022-12-27T18:49:09.563Z,14.50
2022-12-27T18:51:41.675Z,10.95
2022-12-27T18:54:31.624Z,9.30
2022-12-27T18:57:02.166Z,9.65
2022-12-27T18:59:32.591Z,8.40
2022-12-27T19:02:03.599Z,6.68
2022-12-27T19:04:33.629Z,8.45
2022-12-27T19:07:12.553Z,7.40
2022-12-27T19:09:44.713Z,7.15
2022-12-27T19:12:24.365Z,6.53
2022-12-27T19:14:54.681Z,7.45
2022-12-27T19:17:26.727Z,11.13
2022-12-27T19:19:58.763Z,11.65
2022-12-27T19:22:53.959Z,6.03
2022-12-27T19:25:26.179Z,7.00
2022-12-27T19:28:03.453Z,5.95
2022-12-27T19:30:34.752Z,6.22
2022-12-27T19:33:07.831Z,6.05
2022-12-27T19:35:37.067Z,4.20
2022-12-27T19:38:07.823Z,6.30
2022-12-27T19:40:36.593Z,4.07
2022-12-27T19:43:06.424Z,5.32
2022-12-27T19:45:35.218Z,3.95
2022-12-27T19:48:03.705Z,3.65
2022-12-27T19:50:32.109Z,11.38
2022-12-27T19:53:00.999Z,4.47
2022-12-27T19:55:30.633Z,4.97
2022-12-27T19:57:59.267Z,7.90
2022-12-27T20:00:27.936Z,7.68
2022-12-27T20:02:56.946Z,4.00
2022-12-27T20:06:11.280Z,3.60
2022-12-27T20:08:23.952Z,4.88
2022-12-27T20:10:54.055Z,4.30
2022-12-27T20:13:22.639Z,4.40
2022-12-27T20:15:52.180Z,4.65
2022-12-27T20:18:20.831Z,6.10
2022-12-27T20:20:50.002Z,5.78
2022-12-27T20:23:19.411Z,4.82
2022-12-27T20:25:50.333Z,4.38
2022-12-27T20:28:21.120Z,5.43
2022-12-27T20:30:50.167Z,3.07
2022-12-27T20:33:18.503Z,4.68
2022-12-27T20:35:46.944Z,4.82
2022-12-27T20:38:15.866Z,6.38
2022-12-27T20:40:44.510Z,4.47
2022-12-27T20:43:12.973Z,6.57
2022-12-27T20:45:43.038Z,6.97
2022-12-27T20:48:11.570Z,4.57
2022-12-27T20:50:41.382Z,4.20
2022-12-27T20:53:10.557Z,4.95
2022-12-27T20:55:39.618Z,4.68
2022-12-27T20:58:08.914Z,3.92
2022-12-27T21:00:41.184Z,4.43
2022-12-27T21:03:11.306Z,6.95
2022-12-27T21:05:40.741Z,4.10
2022-12-27T21:08:09.964Z,2.20
2022-12-27T21:10:39.061Z,2.50
2022-12-27T21:13:08.365Z,3.75
2022-12-27T21:15:42.199Z,3.78
2022-12-27T21:18:12.588Z,2.95
2022-12-27T21:20:41.590Z,3.53
2022-12-27T21:23:10.864Z,4.55
2022-12-27T21:25:39.662Z,3.47
2022-12-27T21:28:08.461Z,4.85
2022-12-27T21:30:37.660Z,4.03
2022-12-27T21:33:06.012Z,5.57
2022-12-27T21:35:36.153Z,4.03
2022-12-27T21:38:04.741Z,1.25
2022-12-27T21:40:33.357Z,3.28
2022-12-27T21:43:01.873Z,2.15
2022-12-27T21:45:30.173Z,2.83
2022-12-27T21:47:58.635Z,3.60
2022-12-27T21:50:29.088Z,2.53
2022-12-27T21:53:02.685Z,4.93
2022-12-27T21:55:32.692Z,2.15
2022-12-27T21:58:01.627Z,5.28
2022-12-27T22:00:30.067Z,1.90
2022-12-27T22:02:58.609Z,3.42
2022-12-27T22:05:28.569Z,4.10
2022-12-27T22:07:57.045Z,2.78
2022-12-27T22:10:31.777Z,2.80
2022-12-27T22:13:00.328Z,2.80
2022-12-27T22:15:28.854Z,4.25
2022-12-27T22:17:57.819Z,4.68
2022-12-27T22:20:27.819Z,3.38
2022-12-27T22:22:56.268Z,3.65
2022-12-27T22:25:24.471Z,2.65
2022-12-27T22:27:54.484Z,3.35
2022-12-27T22:30:22.975Z,3.65
2022-12-27T22:32:51.719Z,2.92
2022-12-27T22:35:20.069Z,6.30
2022-12-27T22:37:48.455Z,7.00
2022-12-27T22:40:30.834Z,7.47
2022-12-27T22:43:08.837Z,5.05
2022-12-27T22:45:41.349Z,5.55
2022-12-27T22:48:10.177Z,3.67
2022-12-27T22:50:39.704Z,8.40
2022-12-27T22:53:08.121Z,5.07
2022-12-27T22:55:37.163Z,3.08
2022-12-27T22:58:07.104Z,4.17
2022-12-27T23:00:35.685Z,3.30
2022-12-27T23:03:04.636Z,4.28
2022-12-27T23:05:32.966Z,3.75
2022-12-27T23:08:04.892Z,2.50
2022-12-27T23:10:35.620Z,4.50
2022-12-27T23:13:04.001Z,3.17
2022-12-27T23:15:34.081Z,5.13
2022-12-27T23:18:02.817Z,2.35
2022-12-27T23:20:34.212Z,3.22
2022-12-27T23:23:02.480Z,2.55
2022-12-27T23:25:30.797Z,2.25
2022-12-27T23:27:59.296Z,1.50
2022-12-27T23:30:28.020Z,1.95
2022-12-27T23:32:57.783Z,3.83
2022-12-27T23:35:27.744Z,1.88
2022-12-27T23:37:56.950Z,2.70
2022-12-27T23:40:25.283Z,3.45
2022-12-27T23:42:53.821Z,1.88
2022-12-27T23:45:22.221Z,1.83
2022-12-27T23:47:50.692Z,4.10
2022-12-27T23:50:21.314Z,2.53
2022-12-27T23:52:49.967Z,2.08
2022-12-27T23:55:19.618Z,1.75
2022-12-27T23:57:47.978Z,2.40
